createdAt,value
2023-05-10T00:00:23.573Z,15.28
2023-05-10T00:02:50.540Z,15.41
2023-05-10T00:05:17.590Z,15.25
2023-05-10T00:07:47.397Z,15.39
2023-05-10T00:10:14.170Z,15.51
2023-05-10T00:12:41.170Z,15.21
2023-05-10T00:15:08.897Z,15.33
2023-05-10T00:17:35.706Z,15.47
2023-05-10T00:20:02.969Z,15.37
2023-05-10T00:22:29.530Z,15.26
2023-05-10T00:24:56.248Z,15.35
2023-05-10T00:27:25.674Z,15.40
2023-05-10T00:29:52.276Z,15.35
2023-05-10T00:32:19.040Z,15.20
2023-05-10T00:34:45.713Z,15.19
2023-05-10T00:37:12.368Z,15.45
2023-05-10T00:39:39.016Z,15.32
2023-05-10T00:42:05.863Z,15.14
2023-05-10T00:44:32.950Z,15.16
2023-05-10T00:47:00.385Z,15.26
2023-05-10T00:49:27.212Z,15.14
2023-05-10T00:51:54.051Z,15.50
2023-05-10T00:54:21.605Z,15.39
2023-05-10T00:56:50.110Z,15.42
2023-05-10T00:59:18.666Z,15.30
2023-05-10T01:01:46.377Z,15.10
2023-05-10T01:04:14.407Z,15.25
2023-05-10T01:06:42.991Z,15.26
2023-05-10T01:09:12.719Z,15.21
2023-05-10T01:11:41.063Z,15.04
2023-05-10T01:14:08.079Z,15.28
2023-05-10T01:16:38.574Z,15.11
2023-05-10T01:19:12.996Z,15.19
2023-05-10T01:21:58.086Z,15.23
2023-05-10T01:24:24.866Z,15.18
2023-05-10T01:26:51.675Z,15.11
2023-05-10T01:29:37.976Z,15.12
2023-05-10T01:32:26.025Z,15.06
2023-05-10T01:35:01.917Z,15.02
2023-05-10T01:37:37.383Z,14.76
2023-05-10T01:40:09.968Z,14.97
2023-05-10T01:42:52.982Z,14.75
2023-05-10T01:45:30.034Z,14.67
2023-05-10T01:48:07.783Z,14.84
2023-05-10T01:50:37.179Z,14.90
2023-05-10T01:53:09.035Z,14.90
2023-05-10T01:55:49.773Z,14.69
2023-05-10T01:58:23.632Z,14.86
2023-05-10T02:00:52.981Z,14.83
2023-05-10T02:03:23.122Z,14.64
2023-05-10T02:05:51.725Z,14.83
2023-05-10T02:08:22.895Z,14.65
2023-05-10T02:10:53.136Z,14.81
2023-05-10T02:13:20.872Z,14.76
2023-05-10T02:15:49.842Z,14.83
2023-05-10T02:18:18.255Z,14.70
2023-05-10T02:20:47.526Z,14.68
2023-05-10T02:23:18.200Z,14.70
2023-05-10T02:25:48.297Z,14.43
2023-05-10T02:28:17.213Z,14.40
2023-05-10T02:30:44.493Z,14.35
2023-05-10T02:33:12.775Z,14.39
2023-05-10T02:35:39.954Z,14.35
2023-05-10T02:38:08.460Z,14.50
2023-05-10T02:40:37.602Z,14.31
2023-05-10T02:43:07.106Z,14.34
2023-05-10T02:45:36.642Z,14.51
2023-05-10T02:48:03.931Z,14.37
2023-05-10T02:50:33.471Z,14.42
2023-05-10T02:53:10.921Z,14.32
2023-05-10T02:55:39.938Z,14.29
2023-05-10T02:58:07.700Z,14.30
2023-05-10T03:00:34.854Z,14.13
2023-05-10T03:03:01.481Z,14.14
2023-05-10T03:05:28.760Z,14.11
2023-05-10T03:07:59.035Z,14.16
2023-05-10T03:10:30.520Z,14.19
2023-05-10T03:13:16.275Z,14.26
2023-05-10T03:15:55.042Z,14.29
2023-05-10T03:18:49.258Z,14.30
2023-05-10T03:21:19.972Z,14.23
2023-05-10T03:23:57.053Z,14.15
2023-05-10T03:26:29.494Z,14.25
2023-05-10T03:29:07.524Z,14.24
2023-05-10T03:31:34.454Z,13.99
2023-05-10T03:34:01.316Z,13.95
2023-05-10T03:36:28.075Z,14.05
2023-05-10T03:38:55.672Z,14.21
2023-05-10T03:41:22.588Z,13.95
2023-05-10T03:43:53.052Z,13.86
2023-05-10T03:46:19.767Z,14.07
2023-05-10T03:48:46.638Z,14.03
2023-05-10T03:51:13.315Z,13.81
2023-05-10T03:53:40.370Z,13.94
2023-05-10T03:56:07.230Z,13.88
2023-05-10T03:58:33.865Z,13.96
2023-05-10T04:01:00.538Z,13.85
2023-05-10T04:03:27.550Z,13.95
2023-05-10T04:06:02.255Z,13.72
2023-05-10T04:08:29.724Z,13.95
2023-05-10T04:11:13.143Z,13.63
2023-05-10T04:13:39.772Z,13.74
2023-05-10T04:16:06.681Z,13.59
2023-05-10T04:18:33.796Z,13.82
2023-05-10T04:21:00.483Z,13.87
2023-05-10T04:23:29.359Z,13.76
2023-05-10T04:26:03.913Z,13.82
2023-05-10T04:28:30.653Z,13.75
2023-05-10T04:31:08.731Z,13.78
2023-05-10T04:33:36.552Z,13.54
2023-05-10T04:36:04.355Z,13.61
2023-05-10T04:38:32.300Z,13.61
2023-05-10T04:41:11.339Z,13.66
2023-05-10T04:43:39.325Z,13.69
2023-05-10T04:46:07.080Z,13.58
2023-05-10T04:48:34.588Z,13.83
2023-05-10T04:51:04.534Z,13.58
2023-05-10T04:53:31.174Z,13.65
2023-05-10T04:55:57.930Z,13.55
2023-05-10T04:58:24.730Z,13.71
2023-05-10T05:00:51.543Z,13.60
2023-05-10T05:03:18.394Z,13.76
2023-05-10T05:05:45.869Z,13.77
2023-05-10T05:08:12.550Z,13.53
2023-05-10T05:10:39.697Z,13.80
2023-05-10T05:13:06.697Z,13.60
2023-05-10T05:15:34.209Z,13.55
2023-05-10T05:18:01.281Z,13.92
2023-05-10T05:20:28.200Z,13.73
2023-05-10T05:22:56.551Z,13.77
2023-05-10T05:25:26.126Z,13.71
2023-05-10T05:27:52.729Z,13.72
2023-05-10T05:30:19.517Z,13.94
2023-05-10T05:32:48.017Z,13.71
2023-05-10T05:35:14.907Z,13.96
2023-05-10T05:37:41.748Z,13.78
2023-05-10T05:40:09.240Z,13.94
2023-05-10T05:42:36.231Z,14.07
2023-05-10T05:45:03.184Z,13.91
2023-05-10T05:47:30.007Z,14.09
2023-05-10T05:49:56.691Z,13.92
2023-05-10T05:52:26.477Z,13.95
2023-05-10T05:54:53.170Z,13.86
2023-05-10T05:57:19.833Z,14.17
2023-05-10T05:59:47.835Z,14.09
2023-05-10T06:02:14.698Z,13.88
2023-05-10T06:04:44.400Z,14.18
2023-05-10T06:07:11.464Z,14.15
2023-05-10T06:09:38.787Z,14.06
2023-05-10T06:12:06.061Z,14.09
2023-05-10T06:14:32.766Z,14.08
2023-05-10T06:17:00.880Z,14.09
2023-05-10T06:19:28.409Z,14.13
2023-05-10T06:21:55.120Z,13.90
2023-05-10T06:24:24.761Z,14.12
2023-05-10T06:26:51.575Z,14.09
2023-05-10T06:29:18.605Z,14.06
2023-05-10T06:31:49.384Z,13.99
2023-05-10T06:34:26.783Z,14.01
2023-05-10T06:36:53.924Z,14.17
2023-05-10T06:39:21.640Z,13.95
2023-05-10T06:41:50.292Z,14.00
2023-05-10T06:44:20.762Z,14.22
2023-05-10T06:46:47.882Z,14.27
2023-05-10T06:49:14.954Z,14.18
2023-05-10T06:51:41.934Z,14.16
2023-05-10T06:54:08.669Z,14.06
2023-05-10T06:56:35.518Z,14.12
2023-05-10T06:59:02.557Z,14.00
2023-05-10T07:01:29.393Z,13.91
2023-05-10T07:03:56.665Z,13.98
2023-05-10T07:06:32.897Z,14.15
2023-05-10T07:09:01.643Z,14.15
2023-05-10T07:11:28.352Z,13.96
2023-05-10T07:13:57.593Z,14.25
2023-05-10T07:16:24.583Z,14.14
2023-05-10T07:18:52.931Z,14.06
2023-05-10T07:21:19.635Z,14.04
2023-05-10T07:23:47.779Z,14.26
2023-05-10T07:26:18.004Z,13.98
2023-05-10T07:28:48.775Z,14.12
2023-05-10T07:31:18.306Z,13.92
2023-05-10T07:33:45.187Z,13.99
2023-05-10T07:36:11.774Z,14.17
2023-05-10T07:38:40.817Z,14.14
2023-05-10T07:41:07.898Z,14.21
2023-05-10T07:43:34.608Z,14.11
2023-05-10T07:46:01.744Z,14.26
2023-05-10T07:48:28.587Z,14.37
2023-05-10T07:50:57.324Z,14.46
2023-05-10T07:53:28.463Z,14.45
2023-05-10T07:55:59.297Z,14.69
2023-05-10T07:58:26.444Z,14.66
2023-05-10T08:00:53.329Z,14.83
2023-05-10T08:03:20.717Z,15.08
2023-05-10T08:05:47.545Z,15.20
2023-05-10T08:08:14.096Z,15.35
2023-05-10T08:10:40.747Z,15.46
2023-05-10T08:13:07.465Z,15.21
2023-05-10T08:15:34.153Z,15.19
2023-05-10T08:18:01.003Z,15.40
2023-05-10T08:20:27.773Z,15.45
2023-05-10T08:22:54.474Z,15.73
2023-05-10T08:25:21.197Z,16.08
2023-05-10T08:27:47.760Z,16.25
2023-05-10T08:30:15.070Z,16.57
2023-05-10T08:32:41.873Z,16.66
2023-05-10T08:35:08.951Z,16.49
2023-05-10T08:37:35.827Z,16.55
2023-05-10T08:40:02.875Z,16.75
2023-05-10T08:42:32.517Z,16.80
2023-05-10T08:45:00.570Z,17.05
2023-05-10T08:47:27.776Z,16.58
2023-05-10T08:49:55.733Z,16.13
2023-05-10T08:52:24.613Z,16.16
2023-05-10T08:54:51.435Z,15.97
2023-05-10T08:57:21.724Z,15.67
2023-05-10T08:59:48.855Z,15.58
2023-05-10T09:02:18.678Z,15.96
2023-05-10T09:04:45.635Z,15.77
2023-05-10T09:07:12.456Z,15.92
2023-05-10T09:09:39.636Z,16.01
2023-05-10T09:12:07.403Z,16.09
2023-05-10T09:14:40.476Z,16.08
2023-05-10T09:17:07.936Z,16.04
2023-05-10T09:19:35.242Z,16.05
2023-05-10T09:22:08.130Z,16.28
2023-05-10T09:24:39.963Z,16.32
2023-05-10T09:27:07.647Z,16.48
2023-05-10T09:29:43.989Z,16.29
2023-05-10T09:32:10.637Z,16.18
2023-05-10T09:34:40.879Z,16.25
2023-05-10T09:37:09.170Z,16.33
2023-05-10T09:39:37.950Z,16.30
2023-05-10T09:42:11.384Z,16.45
2023-05-10T09:44:39.100Z,16.71
2023-05-10T09:47:05.784Z,16.81
2023-05-10T09:49:32.569Z,16.87
2023-05-10T09:52:07.492Z,17.23
2023-05-10T09:54:35.275Z,17.28
2023-05-10T09:57:02.233Z,17.36
2023-05-10T09:59:29.697Z,17.27
2023-05-10T10:02:03.483Z,17.47
2023-05-10T10:04:30.492Z,17.45
2023-05-10T10:07:02.475Z,17.36
2023-05-10T10:09:29.753Z,17.33
2023-05-10T10:11:57.607Z,17.04
2023-05-10T10:14:24.961Z,17.07
2023-05-10T10:17:05.932Z,16.78
2023-05-10T10:19:37.642Z,16.86
2023-05-10T10:22:05.398Z,16.85
2023-05-10T10:24:32.275Z,17.13
2023-05-10T10:27:09.984Z,17.17
2023-05-10T10:29:40.604Z,17.51
2023-05-10T10:32:27.471Z,17.58
2023-05-10T10:34:56.196Z,17.69
2023-05-10T10:37:22.959Z,17.96
2023-05-10T10:39:51.257Z,17.92
2023-05-10T10:42:48.173Z,18.59
2023-05-10T10:45:15.310Z,18.60
2023-05-10T10:47:44.084Z,19.14
2023-05-10T10:50:13.787Z,19.25
2023-05-10T10:52:41.949Z,19.39
2023-05-10T10:55:11.712Z,19.84
2023-05-10T10:57:48.324Z,20.56
2023-05-10T11:00:37.862Z,21.86
2023-05-10T11:03:20.516Z,22.68
2023-05-10T11:05:52.240Z,23.92
2023-05-10T11:08:30.310Z,24.85
2023-05-10T11:10:59.896Z,25.19
2023-05-10T11:13:44.142Z,25.95
2023-05-10T11:16:28.844Z,26.60
2023-05-10T11:19:04.022Z,27.22
2023-05-10T11:21:32.081Z,25.99
2023-05-10T11:24:00.442Z,23.85
2023-05-10T11:26:36.318Z,23.34
2023-05-10T11:29:05.557Z,23.38
2023-05-10T11:31:33.246Z,24.96
2023-05-10T11:34:02.726Z,26.20
2023-05-10T11:36:34.084Z,27.14
2023-05-10T11:39:01.142Z,27.22
2023-05-10T11:41:29.315Z,25.08
2023-05-10T11:43:57.233Z,25.33
2023-05-10T11:46:26.229Z,26.69
2023-05-10T11:48:57.170Z,27.11
2023-05-10T11:51:28.955Z,26.80
2023-05-10T11:53:57.622Z,27.81
2023-05-10T11:56:27.041Z,28.76
2023-05-10T11:58:56.701Z,29.10
2023-05-10T12:01:24.455Z,28.82
2023-05-10T12:03:53.871Z,27.41
2023-05-10T12:06:22.316Z,26.76
2023-05-10T12:08:53.468Z,25.49
2023-05-10T12:11:22.735Z,24.84
2023-05-10T12:13:50.757Z,24.35
2023-05-10T12:16:29.127Z,24.79
2023-05-10T12:19:01.602Z,24.06
2023-05-10T12:21:34.368Z,23.69
2023-05-10T12:24:05.853Z,23.54
2023-05-10T12:26:33.320Z,23.43
2023-05-10T12:29:19.535Z,23.22
2023-05-10T12:32:00.497Z,23.10
2023-05-10T12:34:38.041Z,23.10
2023-05-10T12:37:05.028Z,23.30
2023-05-10T12:39:45.851Z,23.23
2023-05-10T12:42:12.828Z,23.23
2023-05-10T12:44:40.735Z,23.01
2023-05-10T12:47:07.476Z,24.95
2023-05-10T12:49:34.938Z,25.72
2023-05-10T12:52:01.686Z,26.85
2023-05-10T12:54:28.800Z,26.25
2023-05-10T12:56:55.308Z,25.58
2023-05-10T12:59:21.973Z,24.96
2023-05-10T13:01:48.544Z,24.08
2023-05-10T13:04:15.172Z,23.61
2023-05-10T13:06:42.051Z,23.36
2023-05-10T13:09:08.745Z,23.17
2023-05-10T13:11:35.735Z,23.43
2023-05-10T13:14:04.097Z,23.62
2023-05-10T13:16:31.030Z,25.05
2023-05-10T13:18:57.769Z,26.79
2023-05-10T13:21:26.029Z,26.05
2023-05-10T13:23:52.905Z,25.24
2023-05-10T13:26:20.014Z,26.59
2023-05-10T13:28:46.989Z,27.94
2023-05-10T13:31:13.466Z,28.79
2023-05-10T13:33:40.129Z,30.91
2023-05-10T13:36:07.619Z,30.28
2023-05-10T13:38:34.227Z,29.62
2023-05-10T13:41:00.913Z,28.83
2023-05-10T13:43:27.556Z,28.30
2023-05-10T13:45:54.177Z,27.04
2023-05-10T13:48:20.782Z,25.95
2023-05-10T13:50:48.021Z,26.03
2023-05-10T13:53:15.499Z,27.12
2023-05-10T13:55:42.423Z,27.77
2023-05-10T13:58:09.007Z,28.56
2023-05-10T14:00:35.553Z,27.96
2023-05-10T14:03:02.311Z,29.23
2023-05-10T14:05:29.339Z,28.77
2023-05-10T14:07:56.264Z,28.87
2023-05-10T14:10:23.133Z,29.09
2023-05-10T14:12:51.263Z,27.76
2023-05-10T14:15:18.076Z,27.41
2023-05-10T14:17:44.995Z,25.24
2023-05-10T14:20:12.224Z,25.16
2023-05-10T14:22:38.846Z,25.02
2023-05-10T14:25:05.759Z,24.79
2023-05-10T14:27:32.570Z,24.21
2023-05-10T14:29:59.254Z,24.38
2023-05-10T14:32:25.886Z,23.73
2023-05-10T14:34:52.622Z,23.18
2023-05-10T14:37:19.240Z,23.76
2023-05-10T14:39:46.302Z,23.47
2023-05-10T14:42:12.908Z,23.36
2023-05-10T14:44:39.563Z,23.35
2023-05-10T14:47:06.259Z,23.56
2023-05-10T14:49:32.836Z,23.30
2023-05-10T14:51:59.379Z,23.65
2023-05-10T14:54:25.977Z,24.91
2023-05-10T14:56:52.605Z,24.78
2023-05-10T14:59:19.195Z,24.74
2023-05-10T15:01:46.106Z,25.31
2023-05-10T15:04:14.421Z,25.47
2023-05-10T15:06:41.907Z,25.71
2023-05-10T15:09:08.572Z,25.23
2023-05-10T15:11:35.609Z,25.63
2023-05-10T15:14:02.853Z,25.94
2023-05-10T15:16:29.577Z,25.90
2023-05-10T15:18:56.446Z,26.20
2023-05-10T15:21:23.085Z,26.08
2023-05-10T15:23:49.798Z,25.78
2023-05-10T15:26:16.771Z,25.58
2023-05-10T15:28:43.842Z,25.14
2023-05-10T15:31:10.496Z,24.57
2023-05-10T15:33:39.209Z,24.42
2023-05-10T15:36:06.107Z,24.25
2023-05-10T15:38:32.750Z,23.95
2023-05-10T15:40:59.394Z,23.82
2023-05-10T15:43:25.968Z,24.15
2023-05-10T15:45:52.521Z,23.88
2023-05-10T15:48:19.123Z,23.98
2023-05-10T15:50:45.963Z,23.74
2023-05-10T15:53:12.555Z,23.50
2023-05-10T15:55:39.171Z,23.82
2023-05-10T15:58:05.817Z,23.49
2023-05-10T16:00:32.559Z,23.20
2023-05-10T16:02:59.329Z,23.01
2023-05-10T16:05:29.291Z,22.96
2023-05-10T16:07:55.937Z,23.23
2023-05-10T16:10:22.563Z,22.75
2023-05-10T16:12:49.183Z,22.80
2023-05-10T16:15:15.909Z,23.09
2023-05-10T16:17:42.925Z,23.18
2023-05-10T16:20:09.869Z,23.16
2023-05-10T16:22:36.727Z,23.41
2023-05-10T16:25:03.752Z,23.42
2023-05-10T16:27:33.295Z,23.58
2023-05-10T16:29:59.937Z,23.28
2023-05-10T16:32:26.694Z,23.13
2023-05-10T16:34:53.499Z,22.83
2023-05-10T16:37:20.890Z,22.69
2023-05-10T16:39:48.043Z,22.33
2023-05-10T16:42:14.653Z,22.11
2023-05-10T16:44:41.369Z,21.49
2023-05-10T16:47:08.498Z,21.52
2023-05-10T16:49:36.180Z,21.38
2023-05-10T16:52:03.360Z,21.17
2023-05-10T16:54:30.176Z,21.20
2023-05-10T16:56:56.855Z,21.27
2023-05-10T16:59:23.514Z,20.88
2023-05-10T17:01:50.174Z,20.94
2023-05-10T17:04:17.680Z,20.79
2023-05-10T17:06:44.295Z,21.07
2023-05-10T17:09:11.987Z,20.64
2023-05-10T17:11:38.747Z,20.34
2023-05-10T17:14:05.430Z,20.11
2023-05-10T17:16:32.067Z,20.12
2023-05-10T17:18:58.864Z,20.07
2023-05-10T17:21:25.551Z,20.08
2023-05-10T17:23:52.187Z,19.90
2023-05-10T17:26:18.752Z,19.99
2023-05-10T17:28:45.434Z,19.72
2023-05-10T17:31:12.114Z,19.72
2023-05-10T17:33:39.238Z,19.69
2023-05-10T17:36:08.813Z,19.56
2023-05-10T17:38:36.420Z,19.44
2023-05-10T17:41:02.942Z,19.44
2023-05-10T17:43:29.620Z,19.36
2023-05-10T17:45:56.289Z,19.24
2023-05-10T17:48:23.033Z,19.32
2023-05-10T17:50:50.906Z,19.25
2023-05-10T17:53:18.433Z,19.10
2023-05-10T17:55:45.308Z,18.73
2023-05-10T17:58:12.513Z,18.73
2023-05-10T18:00:39.580Z,18.52
2023-05-10T18:03:06.372Z,18.62
2023-05-10T18:05:37.491Z,18.51
2023-05-10T18:08:05.279Z,18.57
2023-05-10T18:10:32.265Z,18.55
2023-05-10T18:12:59.132Z,18.47
2023-05-10T18:15:26.884Z,18.55
2023-05-10T18:17:53.574Z,18.47
2023-05-10T18:20:20.234Z,18.28
2023-05-10T18:22:47.017Z,17.51
2023-05-10T18:25:13.826Z,16.76
2023-05-10T18:27:40.578Z,17.01
2023-05-10T18:30:10.073Z,16.87
2023-05-10T18:32:38.363Z,16.68
2023-05-10T18:35:06.835Z,16.67
2023-05-10T18:37:33.910Z,15.83
2023-05-10T18:40:00.738Z,15.71
2023-05-10T18:42:27.755Z,15.55
2023-05-10T18:44:55.367Z,15.47
2023-05-10T18:47:22.145Z,15.10
2023-05-10T18:49:48.930Z,14.86
2023-05-10T18:52:16.103Z,15.01
2023-05-10T18:54:42.740Z,15.48
2023-05-10T18:57:09.390Z,15.12
2023-05-10T18:59:36.086Z,15.20
2023-05-10T19:02:04.563Z,15.41
2023-05-10T19:04:33.084Z,15.60
2023-05-10T19:07:02.018Z,16.03
2023-05-10T19:09:30.058Z,16.20
2023-05-10T19:11:56.836Z,16.25
2023-05-10T19:14:26.012Z,16.19
2023-05-10T19:16:53.484Z,16.30
2023-05-10T19:19:23.946Z,16.31
2023-05-10T19:21:51.797Z,16.32
2023-05-10T19:24:19.717Z,16.18
2023-05-10T19:26:48.564Z,16.27
2023-05-10T19:29:15.581Z,16.36
2023-05-10T19:31:42.400Z,16.45
2023-05-10T19:34:09.205Z,16.25
2023-05-10T19:36:36.014Z,16.15
2023-05-10T19:39:03.902Z,16.02
2023-05-10T19:41:31.882Z,15.99
2023-05-10T19:43:58.523Z,15.74
2023-05-10T19:46:25.454Z,15.63
2023-05-10T19:48:52.360Z,15.57
2023-05-10T19:51:18.965Z,15.36
2023-05-10T19:53:46.007Z,15.26
2023-05-10T19:56:13.228Z,15.14
2023-05-10T19:58:40.863Z,15.13
2023-05-10T20:01:07.961Z,15.45
2023-05-10T20:03:35.605Z,15.48
2023-05-10T20:06:02.797Z,15.51
2023-05-10T20:08:29.842Z,15.60
2023-05-10T20:10:59.138Z,15.20
2023-05-10T20:13:26.124Z,15.19
2023-05-10T20:15:56.630Z,15.31
2023-05-10T20:18:23.775Z,15.41
2023-05-10T20:20:59.556Z,15.59
2023-05-10T20:23:26.811Z,15.26
2023-05-10T20:25:54.627Z,15.41
2023-05-10T20:28:26.291Z,15.47
2023-05-10T20:30:55.769Z,15.33
2023-05-10T20:33:22.846Z,15.27
2023-05-10T20:35:52.356Z,15.46
2023-05-10T20:38:19.112Z,15.39
2023-05-10T20:40:46.725Z,15.44
2023-05-10T20:43:13.302Z,15.52
2023-05-10T20:45:39.972Z,15.41
2023-05-10T20:48:07.682Z,15.18
2023-05-10T20:50:34.458Z,15.31
2023-05-10T20:55:28.433Z,15.26
2023-05-10T20:57:55.313Z,15.35
2023-05-10T21:00:22.000Z,15.25
2023-05-10T21:02:48.931Z,15.15
2023-05-10T21:05:17.895Z,15.30
2023-05-10T21:07:44.601Z,15.16
2023-05-10T21:10:11.657Z,15.04
2023-05-10T21:12:38.410Z,15.01
2023-05-10T21:15:05.484Z,15.21
2023-05-10T21:17:32.083Z,15.15
2023-05-10T21:19:58.722Z,15.07
2023-05-10T21:22:25.329Z,14.90
2023-05-10T21:24:51.974Z,14.61
2023-05-10T21:27:18.599Z,14.46
2023-05-10T21:29:45.712Z,14.25
2023-05-10T21:32:12.352Z,14.32
2023-05-10T21:34:39.013Z,14.35
2023-05-10T21:37:05.996Z,14.51
2023-05-10T21:39:32.609Z,14.40
2023-05-10T21:42:00.274Z,14.46
2023-05-10T21:44:26.931Z,13.98
2023-05-10T21:46:53.588Z,13.89
2023-05-10T21:49:20.245Z,13.68
2023-05-10T21:51:47.341Z,13.57
2023-05-10T21:54:14.029Z,13.61
2023-05-10T21:56:40.586Z,13.94
2023-05-10T21:59:07.215Z,14.02
2023-05-10T22:01:33.925Z,14.07
2023-05-10T22:04:00.723Z,14.05
2023-05-10T22:06:27.415Z,14.00
2023-05-10T22:08:54.312Z,14.06
2023-05-10T22:11:21.830Z,14.16
2023-05-10T22:13:48.462Z,14.09
2023-05-10T22:16:15.568Z,14.21
2023-05-10T22:18:43.551Z,14.34
2023-05-10T22:21:10.666Z,14.39
2023-05-10T22:23:37.382Z,14.30
2023-05-10T22:26:04.682Z,14.11
2023-05-10T22:28:31.258Z,14.16
2023-05-10T22:30:58.386Z,14.21
2023-05-10T22:33:25.230Z,14.25
2023-05-10T22:35:52.154Z,14.07
2023-05-10T22:38:18.860Z,14.23
2023-05-10T22:40:45.516Z,14.26
2023-05-10T22:43:12.176Z,14.13
2023-05-10T22:45:38.833Z,14.12
2023-05-10T22:48:05.649Z,14.13
2023-05-10T22:50:32.279Z,14.15
2023-05-10T22:52:59.091Z,13.92
2023-05-10T22:55:25.810Z,14.01
2023-05-10T22:57:52.553Z,13.94
2023-05-10T23:00:20.060Z,13.67
2023-05-10T23:02:47.128Z,13.83
2023-05-10T23:05:14.001Z,13.81
2023-05-10T23:07:40.804Z,13.60
2023-05-10T23:10:08.105Z,13.73
2023-05-10T23:12:35.050Z,13.77
2023-05-10T23:15:01.659Z,13.57
2023-05-10T23:17:28.381Z,13.79
2023-05-10T23:19:55.130Z,13.76
2023-05-10T23:22:21.839Z,13.64
2023-05-10T23:24:48.458Z,13.73
2023-05-10T23:27:15.098Z,13.55
2023-05-10T23:29:41.731Z,13.65
2023-05-10T23:32:08.397Z,13.61
2023-05-10T23:34:35.134Z,13.32
2023-05-10T23:37:02.347Z,13.57
2023-05-10T23:39:29.011Z,13.47
2023-05-10T23:41:55.587Z,13.44
2023-05-10T23:44:22.197Z,13.50
2023-05-10T23:46:48.798Z,13.25
2023-05-10T23:49:15.358Z,13.34
2023-05-10T23:51:41.998Z,13.35
2023-05-10T23:54:08.734Z,13.39
2023-05-10T23:56:35.413Z,13.30
2023-05-10T23:59:01.940Z,13.33
